»·PEaware :: N869BC KSMX-KBFL

N869BC :: KSMX-KBFL

FLIGHT INFORMATION

Flight Status: Arrived
Operator: Privately registered:
United States
More flights under this callsign
Pilot: Marcus R. (12677)
Aircraft: CESSNA T210 TURBO CENTURION
(T210)
More flights by this aircraft type
Origin: KSMX Santa Maria Pub/Capt Hancock
United States
Destination: KBFL Meadows
United States
More flights between these airports :: More routes between these airports
Route: +FLW
File this flight plan on PilotEdge
Remarks: CAT-05
Altitude:
(Current/Filed)
7,500ft
Speed:
(Current/Filed)
165kts
Departed: 05-Oct-18 01:02 PM
Arrived: 05-Oct-18 01:39 PM
Distance/Time
Traveled:
76nm/0:37
Distance/Time
To Go:
Arrived

Flight Plot

Page will automatically refresh every two minutes.


Map Options




Map Legend


Flown Route
Filed Route
Departure Airport
Arrival Airport
Navaid (VOR, NDB)
Fix

Horizontal Profiles

Position Reports

Time Latitude Longitude Heading Altitude Ground
Speed
05-Oct-18 12:22 34.898627 -120.448127 134 264ft 0kts
05-Oct-18 12:23 34.898627 -120.448127 134 264ft 0kts
05-Oct-18 12:24 34.898627 -120.448127 134 264ft 0kts
05-Oct-18 12:25 34.898627 -120.448127 134 264ft 0kts
05-Oct-18 12:26 34.898627 -120.448127 134 264ft 0kts
05-Oct-18 12:27 34.898627 -120.448127 134 264ft 0kts
05-Oct-18 12:28 34.898627 -120.448127 134 264ft 0kts
05-Oct-18 12:29 34.898627 -120.448127 134 264ft 0kts
05-Oct-18 12:30 34.898627 -120.448127 134 264ft 0kts
05-Oct-18 12:31 34.898627 -120.448127 134 264ft 0kts
05-Oct-18 12:32 34.898627 -120.448127 134 264ft 0kts
05-Oct-18 12:33 34.898627 -120.448127 134 264ft 0kts
05-Oct-18 12:34 34.898627 -120.448127 134 264ft 0kts
05-Oct-18 12:35 34.898622 -120.448120 134 264ft 0kts
05-Oct-18 12:36 34.898622 -120.448120 134 264ft 0kts
05-Oct-18 12:37 34.898622 -120.448120 134 264ft 0kts
05-Oct-18 12:38 34.898622 -120.448120 134 264ft 0kts
05-Oct-18 12:39 34.898622 -120.448120 134 264ft 0kts
05-Oct-18 12:40 34.898622 -120.448120 134 264ft 0kts
05-Oct-18 12:41 34.898622 -120.448120 134 264ft 0kts
05-Oct-18 12:42 34.898622 -120.448120 134 264ft 0kts
05-Oct-18 12:43 34.898622 -120.448120 134 264ft 0kts
05-Oct-18 12:44 34.898622 -120.448120 134 264ft 0kts
05-Oct-18 12:45 34.898622 -120.448120 134 264ft 0kts
05-Oct-18 12:46 34.898622 -120.448120 134 264ft 0kts
05-Oct-18 12:47 34.898622 -120.448120 134 264ft 0kts
05-Oct-18 12:48 34.898622 -120.448120 134 264ft 0kts
05-Oct-18 12:49 34.898622 -120.448120 134 264ft 0kts
05-Oct-18 12:50 34.898622 -120.448120 134 264ft 0kts
05-Oct-18 12:51 34.898622 -120.448120 134 264ft 0kts
05-Oct-18 12:52 34.898622 -120.448120 134 264ft 0kts
05-Oct-18 12:53 34.898622 -120.448120 134 264ft 0kts
05-Oct-18 12:54 34.898622 -120.448120 134 264ft 0kts
05-Oct-18 12:55 34.898622 -120.448120 134 264ft 0kts
05-Oct-18 12:56 34.898622 -120.448120 134 264ft 0kts
05-Oct-18 12:57 34.898622 -120.448120 134 264ft 0kts
05-Oct-18 12:58 34.898622 -120.448120 134 264ft 0kts
05-Oct-18 12:59 34.898618 -120.448115 134 264ft 0kts
05-Oct-18 13:00 34.895707 -120.446784 134 264ft 23kts
05-Oct-18 13:01 34.893261 -120.444954 177 264ft 0kts
05-Oct-18 13:02 34.893261 -120.444954 177 264ft 0kts
05-Oct-18 13:03 34.893261 -120.444954 177 264ft 0kts
05-Oct-18 13:04 34.896559 -120.450303 312 337ft 70kts
05-Oct-18 13:05 34.915644 -120.460008 35 1384ft 98kts
05-Oct-18 13:06 34.935656 -120.437105 34 2256ft 99kts
05-Oct-18 13:07 34.946888 -120.405712 75 3134ft 106kts
05-Oct-18 13:08 34.951132 -120.369887 75 3992ft 109kts
05-Oct-18 13:09 34.955637 -120.333260 78 4882ft 108kts
05-Oct-18 13:10 34.957915 -120.297038 81 5731ft 110kts
05-Oct-18 13:11 34.962952 -120.260026 68 6520ft 113kts
05-Oct-18 13:12 34.971738 -120.223512 62 7355ft 112kts
05-Oct-18 13:13 34.984511 -120.184932 67 7701ft 149kts
05-Oct-18 13:14 34.999573 -120.133766 64 7520ft 165kts
05-Oct-18 13:15 35.015962 -120.080855 64 7513ft 168kts
05-Oct-18 13:16 35.032511 -120.027655 63 7504ft 165kts
05-Oct-18 13:17 35.048719 -119.975657 64 7503ft 163kts
05-Oct-18 13:18 35.068036 -119.925904 54 7505ft 162kts
05-Oct-18 13:19 35.090733 -119.878661 54 7507ft 162kts
05-Oct-18 13:20 35.112271 -119.833928 53 7509ft 162kts
05-Oct-18 13:21 35.136938 -119.788228 35 7510ft 157kts
05-Oct-18 13:22 35.169587 -119.752277 48 7507ft 161kts
05-Oct-18 13:23 35.192816 -119.705133 55 7521ft 162kts
05-Oct-18 13:24 35.214199 -119.657409 55 7538ft 155kts
05-Oct-18 13:25 35.242058 -119.615253 37 6682ft 162kts
05-Oct-18 13:26 35.280084 -119.585869 3 4581ft 164kts
05-Oct-18 13:27 35.274657 -119.583106 89 3545ft 136kts
05-Oct-18 13:28 35.275264 -119.534956 85 3534ft 151kts
05-Oct-18 13:29 35.276408 -119.482223 85 3516ft 156kts
05-Oct-18 13:30 35.278472 -119.429133 82 3516ft 156kts
05-Oct-18 13:31 35.292447 -119.380056 59 3516ft 153kts
05-Oct-18 13:32 35.309775 -119.339204 59 3515ft 153kts
05-Oct-18 13:33 35.330008 -119.293489 55 3515ft 152kts
05-Oct-18 13:34 35.352165 -119.249131 55 3515ft 152kts
05-Oct-18 13:35 35.373978 -119.204553 56 3515ft 153kts
05-Oct-18 13:36 35.395205 -119.162896 61 3847ft 134kts
05-Oct-18 13:37 35.412286 -119.123626 55 3195ft 127kts
05-Oct-18 13:38 35.426565 -119.088792 70 2080ft 100kts
05-Oct-18 13:39 35.419648 -119.061804 135 1584ft 85kts
05-Oct-18 13:40 35.426331 -119.047315 320 569ft 73kts
05-Oct-18 13:41 35.436272 -119.057785 58 510ft 6kts
05-Oct-18 13:42 35.436278 -119.057772 58 510ft 0kts
05-Oct-18 13:43 35.436278 -119.057772 58 510ft 0kts
05-Oct-18 13:44 35.436311 -119.055130 25 510ft 11kts
05-Oct-18 13:45 35.436690 -119.054355 211 510ft 0kts
05-Oct-18 13:46 35.436690 -119.054355 211 510ft 0kts
05-Oct-18 13:47 35.436690 -119.054355 211 510ft 0kts
05-Oct-18 13:48 35.436690 -119.054356 211 510ft 0kts
05-Oct-18 13:49 35.436691 -119.054355 211 509ft 0kts
05-Oct-18 13:50 35.436691 -119.054355 211 509ft 0kts
05-Oct-18 13:51 35.436691 -119.054355 211 509ft 0kts
05-Oct-18 13:52 35.436691 -119.054355 211 509ft 0kts
05-Oct-18 13:53 35.436691 -119.054355 211 509ft 0kts
05-Oct-18 13:54 35.436691 -119.054355 211 509ft 0kts
05-Oct-18 13:55 35.436691 -119.054355 211 509ft 0kts

Navigation Log

Ident Type
Flight plan parsing failed, navigation log unavailable